createdAt,value
2019-05-06T00:00:54.879Z,77.08
2019-05-06T00:01:40.229Z,76.66
2019-05-06T00:02:40.244Z,76.35
2019-05-06T00:03:40.203Z,76.56
2019-05-06T00:04:40.193Z,76.66
2019-05-06T00:05:40.181Z,76.46
2019-05-06T00:06:40.171Z,76.76
2019-05-06T00:07:40.178Z,76.29
2019-05-06T00:08:40.152Z,76.66
2019-05-06T00:09:40.137Z,76.35
2019-05-06T00:10:40.126Z,77.08
2019-05-06T00:11:40.114Z,76.56
2019-05-06T00:12:40.127Z,76.70
2019-05-06T00:13:40.094Z,76.39
2019-05-06T00:14:40.081Z,76.08
2019-05-06T00:15:40.083Z,76.39
2019-05-06T00:16:40.061Z,76.08
2019-05-06T00:17:40.082Z,76.70
2019-05-06T00:18:40.038Z,77.25
2019-05-06T00:19:40.025Z,76.94
2019-05-06T00:20:40.014Z,76.94
2019-05-06T00:21:40.002Z,77.35
2019-05-06T00:22:39.993Z,77.76
2019-05-06T00:23:40.005Z,77.45
2019-05-06T00:24:39.972Z,78.11
2019-05-06T00:25:39.964Z,77.87
2019-05-06T00:26:39.946Z,77.80
2019-05-06T00:27:39.935Z,77.66
2019-05-06T00:28:39.943Z,77.91
2019-05-06T00:29:39.913Z,77.87
2019-05-06T00:30:39.902Z,77.45
2019-05-06T00:31:39.893Z,77.66
2019-05-06T00:32:39.887Z,77.59
2019-05-06T00:33:39.890Z,77.87
2019-05-06T00:34:39.856Z,77.76
2019-05-06T00:35:39.845Z,76.94
2019-05-06T00:36:39.839Z,77.28
2019-05-06T00:37:39.826Z,77.28
2019-05-06T00:38:39.830Z,78.11
2019-05-06T00:39:39.812Z,77.49
2019-05-06T00:40:39.794Z,77.70
2019-05-06T00:41:39.780Z,78.87
2019-05-06T00:42:39.767Z,78.83
2019-05-06T00:43:39.775Z,78.77
2019-05-06T00:44:39.744Z,79.08
2019-05-06T00:45:39.734Z,78.87
2019-05-06T00:46:39.723Z,79.42
2019-05-06T00:47:39.712Z,79.52
2019-05-06T00:48:39.736Z,79.32
2019-05-06T00:49:39.690Z,79.94
2019-05-06T00:50:39.688Z,79.42
2019-05-06T00:51:39.666Z,80.15
2019-05-06T00:52:39.656Z,79.94
2019-05-06T00:53:39.665Z,80.25
2019-05-06T00:54:39.636Z,80.66
2019-05-06T00:55:39.625Z,80.66
2019-05-06T00:56:39.621Z,80.56
2019-05-06T00:57:39.600Z,81.49
2019-05-06T00:58:39.608Z,81.38
2019-05-06T00:59:39.578Z,81.18
2019-05-06T01:00:39.569Z,80.35
2019-05-06T01:01:39.558Z,80.76
2019-05-06T01:02:39.544Z,80.35
2019-05-06T01:03:39.553Z,80.76
2019-05-06T01:04:39.522Z,80.15
2019-05-06T01:05:39.511Z,80.46
2019-05-06T01:06:39.504Z,79.52
2019-05-06T01:07:39.488Z,80.15
2019-05-06T01:08:39.500Z,80.76
2019-05-06T01:09:39.467Z,80.25
2019-05-06T01:10:39.455Z,80.46
2019-05-06T01:11:39.443Z,79.63
2019-05-06T01:12:39.432Z,80.35
2019-05-06T01:13:39.442Z,81.28
2019-05-06T01:14:39.411Z,80.87
2019-05-06T01:15:39.401Z,80.76
2019-05-06T01:16:39.392Z,81.49
2019-05-06T01:17:39.380Z,81.18
2019-05-06T01:18:39.416Z,80.87
2019-05-06T01:19:39.360Z,81.28
2019-05-06T01:20:39.348Z,80.04
2019-05-06T01:21:39.332Z,80.15
2019-05-06T01:22:39.321Z,80.25
2019-05-06T01:23:39.332Z,80.76
2019-05-06T01:24:39.299Z,79.63
2019-05-06T01:25:39.308Z,80.15
2019-05-06T01:26:39.277Z,80.66
2019-05-06T01:27:39.266Z,80.08
2019-05-06T01:28:39.279Z,80.29
2019-05-06T01:29:39.245Z,80.18
2019-05-06T01:30:39.234Z,80.49
2019-05-06T01:31:43.068Z,81.32
2019-05-06T01:32:39.213Z,81.21
2019-05-06T01:33:39.221Z,82.25
2019-05-06T01:34:39.192Z,82.35
2019-05-06T01:35:39.182Z,82.29
2019-05-06T01:36:39.167Z,82.15
2019-05-06T01:37:39.162Z,81.21
2019-05-06T01:38:39.174Z,81.42
2019-05-06T01:39:39.135Z,80.80
2019-05-06T01:40:39.123Z,80.60
2019-05-06T01:41:39.138Z,80.60
2019-05-06T01:42:39.104Z,80.18
2019-05-06T01:43:39.131Z,80.08
2019-05-06T01:44:39.078Z,80.29
2019-05-06T01:45:39.068Z,80.49
2019-05-06T01:46:39.056Z,80.60
2019-05-06T01:47:39.045Z,79.77
2019-05-06T01:48:39.035Z,80.39
2019-05-06T01:49:39.045Z,81.52
2019-05-06T01:50:39.015Z,81.32
2019-05-06T01:51:39.004Z,80.80
2019-05-06T01:52:38.990Z,80.60
2019-05-06T01:53:38.980Z,81.11
2019-05-06T01:54:38.986Z,79.87
2019-05-06T01:55:38.957Z,80.29
2019-05-06T01:56:38.945Z,80.29
2019-05-06T01:57:38.934Z,80.39
2019-05-06T01:58:38.922Z,80.70
2019-05-06T01:59:38.930Z,80.39
2019-05-06T02:00:39.612Z,79.87
2019-05-06T02:01:38.893Z,79.70
2019-05-06T02:02:38.878Z,80.32
2019-05-06T02:03:38.870Z,80.11
2019-05-06T02:04:38.880Z,80.01
2019-05-06T02:05:38.846Z,79.91
2019-05-06T02:06:38.835Z,80.57
2019-05-06T02:07:38.827Z,80.11
2019-05-06T02:08:38.813Z,80.57
2019-05-06T02:09:38.825Z,80.15
2019-05-06T02:10:38.790Z,80.15
2019-05-06T02:11:38.780Z,80.40
2019-05-06T02:12:38.776Z,81.12
2019-05-06T02:13:38.762Z,81.33
2019-05-06T02:14:38.771Z,82.36
2019-05-06T02:15:38.735Z,82.84
2019-05-06T02:16:38.724Z,82.84
2019-05-06T02:17:38.720Z,82.95
2019-05-06T02:18:38.707Z,82.64
2019-05-06T02:19:38.711Z,82.12
2019-05-06T02:20:38.680Z,82.22
2019-05-06T02:21:38.668Z,83.05
2019-05-06T02:22:38.660Z,83.56
2019-05-06T02:23:38.648Z,83.67
2019-05-06T02:24:38.655Z,83.67
2019-05-06T02:25:38.648Z,82.95
2019-05-06T02:26:38.613Z,82.01
2019-05-06T02:27:38.603Z,82.22
2019-05-06T02:28:38.591Z,82.64
2019-05-06T02:29:38.603Z,82.12
2019-05-06T02:30:38.573Z,82.39
2019-05-06T02:31:38.560Z,82.18
2019-05-06T02:32:38.583Z,82.12
2019-05-06T02:33:38.537Z,82.29
2019-05-06T02:34:38.570Z,82.18
2019-05-06T02:35:38.515Z,82.29
2019-05-06T02:36:38.513Z,82.18
2019-05-06T02:37:38.502Z,82.39
2019-05-06T02:38:46.931Z,82.29
2019-05-06T02:39:38.504Z,81.77
2019-05-06T02:40:38.459Z,80.74
2019-05-06T02:41:38.562Z,80.53
2019-05-06T02:42:38.444Z,80.94
2019-05-06T02:43:38.432Z,81.15
2019-05-06T02:44:38.473Z,81.77
2019-05-06T02:45:38.403Z,81.25
2019-05-06T02:46:38.392Z,81.39
2019-05-06T02:47:38.380Z,81.35
2019-05-06T02:48:38.381Z,81.15
2019-05-06T02:49:38.376Z,81.60
2019-05-06T02:50:38.370Z,81.60
2019-05-06T02:51:38.340Z,82.12
2019-05-06T02:52:38.325Z,82.53
2019-05-06T02:53:38.315Z,82.50
2019-05-06T02:54:38.324Z,82.43
2019-05-06T02:55:38.297Z,82.01
2019-05-06T02:56:38.299Z,82.50
2019-05-06T02:57:38.270Z,82.08
2019-05-06T02:58:38.258Z,82.39
2019-05-06T02:59:38.266Z,82.12
2019-05-06T03:00:38.237Z,82.32
2019-05-06T03:01:38.224Z,82.50
2019-05-06T03:02:43.670Z,81.77
2019-05-06T03:03:38.209Z,81.39
2019-05-06T03:04:38.221Z,80.43
2019-05-06T03:05:38.246Z,81.70
2019-05-06T03:06:38.175Z,81.29
2019-05-06T03:07:38.158Z,82.12
2019-05-06T03:08:38.147Z,82.43
2019-05-06T03:09:38.182Z,82.12
2019-05-06T03:10:38.129Z,81.39
2019-05-06T03:11:38.117Z,81.54
2019-05-06T03:12:38.103Z,82.12
2019-05-06T03:13:38.093Z,82.43
2019-05-06T03:14:38.084Z,81.70
2019-05-06T03:15:38.099Z,82.26
2019-05-06T03:16:38.060Z,82.12
2019-05-06T03:17:38.051Z,82.22
2019-05-06T03:18:38.036Z,82.05
2019-05-06T03:19:38.025Z,82.26
2019-05-06T03:20:38.033Z,82.01
2019-05-06T03:21:38.002Z,81.95
2019-05-06T03:22:37.992Z,81.95
2019-05-06T03:23:37.985Z,82.05
2019-05-06T03:24:37.991Z,82.67
2019-05-06T03:25:37.979Z,82.26
2019-05-06T03:26:37.947Z,82.26
2019-05-06T03:27:37.939Z,82.26
2019-05-06T03:28:37.930Z,82.05
2019-05-06T03:29:37.914Z,82.98
2019-05-06T03:30:37.923Z,82.98
2019-05-06T03:31:37.895Z,84.01
2019-05-06T03:33:14.461Z,83.50
2019-05-06T03:33:56.815Z,83.40
2019-05-06T03:35:01.354Z,84.12
2019-05-06T03:35:57.189Z,82.78
2019-05-06T03:36:41.137Z,82.67
2019-05-06T03:37:37.841Z,82.67
2019-05-06T03:38:37.818Z,83.09
2019-05-06T03:39:37.812Z,82.46
2019-05-06T03:40:41.818Z,82.36
2019-05-06T03:41:37.786Z,82.98
2019-05-06T03:42:37.770Z,82.57
2019-05-06T03:43:37.759Z,82.88
2019-05-06T03:44:37.749Z,82.57
2019-05-06T03:45:37.757Z,82.15
2019-05-06T03:46:37.727Z,82.60
2019-05-06T03:47:37.725Z,82.57
2019-05-06T03:48:37.704Z,82.88
2019-05-06T03:49:37.695Z,83.81
2019-05-06T03:50:37.703Z,83.81
2019-05-06T03:51:37.674Z,83.50
2019-05-06T03:52:37.674Z,83.71
2019-05-06T03:53:37.651Z,83.81
2019-05-06T03:54:37.644Z,83.91
2019-05-06T03:55:37.651Z,84.37
2019-05-06T03:56:37.629Z,83.81
2019-05-06T03:57:37.606Z,84.22
2019-05-06T03:58:37.594Z,83.81
2019-05-06T03:59:37.609Z,84.22
2019-05-06T04:00:37.594Z,84.01
2019-05-06T04:01:37.564Z,83.81
2019-05-06T04:02:39.874Z,83.95
2019-05-06T04:03:47.303Z,83.91
2019-05-06T04:04:38.533Z,84.22
2019-05-06T04:05:37.535Z,84.53
2019-05-06T04:06:37.504Z,85.30
2019-05-06T04:07:37.493Z,85.40
2019-05-06T04:08:37.483Z,85.36
2019-05-06T04:09:37.471Z,85.30
2019-05-06T04:10:37.479Z,85.30
2019-05-06T04:11:37.449Z,84.84
2019-05-06T04:12:37.494Z,84.84
2019-05-06T04:13:37.427Z,84.22
2019-05-06T04:14:37.416Z,84.22
2019-05-06T04:15:37.424Z,84.74
2019-05-06T04:16:37.395Z,85.26
2019-05-06T04:17:37.387Z,85.26
2019-05-06T04:18:37.393Z,84.43
2019-05-06T04:19:37.364Z,84.53
2019-05-06T04:20:37.381Z,84.74
2019-05-06T04:21:37.343Z,84.50
2019-05-06T04:22:37.326Z,84.29
2019-05-06T04:23:37.318Z,83.77
2019-05-06T04:24:37.306Z,83.98
2019-05-06T04:25:37.296Z,83.46
2019-05-06T04:26:37.308Z,82.64
2019-05-06T04:27:37.275Z,83.15
2019-05-06T04:28:37.261Z,83.19
2019-05-06T04:29:37.252Z,83.71
2019-05-06T04:30:37.239Z,83.71
2019-05-06T04:31:37.254Z,84.12
2019-05-06T04:32:37.218Z,84.53
2019-05-06T04:33:37.209Z,85.05
2019-05-06T04:34:37.194Z,85.05
2019-05-06T04:35:37.195Z,85.05
2019-05-06T04:36:37.193Z,85.05
2019-05-06T04:37:37.162Z,84.84
2019-05-06T04:38:37.153Z,84.91
2019-05-06T04:39:37.141Z,84.74
2019-05-06T04:40:37.128Z,84.60
2019-05-06T04:41:37.138Z,85.05
2019-05-06T04:42:37.109Z,85.22
2019-05-06T04:43:37.096Z,85.02
2019-05-06T04:44:37.104Z,85.11
2019-05-06T04:45:37.107Z,84.70
2019-05-06T04:46:37.086Z,85.11
2019-05-06T04:47:37.053Z,85.22
2019-05-06T04:48:37.041Z,85.53
2019-05-06T04:49:37.062Z,84.50
2019-05-06T04:50:37.021Z,84.50
2019-05-06T04:51:37.276Z,84.81
2019-05-06T04:52:36.997Z,84.97
2019-05-06T04:53:36.987Z,84.36
2019-05-06T04:54:36.980Z,84.36
2019-05-06T04:55:36.963Z,83.84
2019-05-06T04:56:36.971Z,84.05
2019-05-06T04:57:36.941Z,83.98
2019-05-06T04:58:36.930Z,84.15
2019-05-06T04:59:36.917Z,84.05
2019-05-06T05:00:36.911Z,83.87
2019-05-06T05:01:36.923Z,83.98
2019-05-06T05:02:36.887Z,83.22
2019-05-06T05:03:36.891Z,83.63
2019-05-06T05:04:37.155Z,83.67
2019-05-06T05:05:36.854Z,83.84
2019-05-06T05:06:36.864Z,83.94
2019-05-06T05:07:36.831Z,83.87
2019-05-06T05:08:36.852Z,83.98
2019-05-06T05:09:36.809Z,83.46
2019-05-06T05:10:36.798Z,83.67
2019-05-06T05:11:36.815Z,84.19
2019-05-06T05:12:36.774Z,84.29
2019-05-06T05:13:36.763Z,85.08
2019-05-06T05:14:36.750Z,84.97
2019-05-06T05:15:36.738Z,84.77
2019-05-06T05:16:36.748Z,85.11
2019-05-06T05:17:36.720Z,85.18
2019-05-06T05:18:36.706Z,84.87
2019-05-06T05:19:36.696Z,85.28
2019-05-06T05:20:40.743Z,84.97
2019-05-06T05:21:36.697Z,85.18
2019-05-06T05:22:36.663Z,85.28
2019-05-06T05:23:36.651Z,85.14
2019-05-06T05:24:36.638Z,85.04
2019-05-06T05:25:36.627Z,85.14
2019-05-06T05:26:36.637Z,85.14
2019-05-06T05:27:36.605Z,84.31
2019-05-06T05:28:36.593Z,84.52
2019-05-06T05:29:36.586Z,83.80
2019-05-06T05:30:36.573Z,83.80
2019-05-06T05:31:36.581Z,83.65
2019-05-06T05:32:36.548Z,83.49
2019-05-06T05:33:36.540Z,84.07
2019-05-06T05:34:40.425Z,83.55
2019-05-06T05:35:36.522Z,83.76
2019-05-06T05:36:36.523Z,83.14
2019-05-06T05:37:36.510Z,82.93
2019-05-06T05:38:36.486Z,83.04
2019-05-06T05:39:36.662Z,83.25
2019-05-06T05:40:36.460Z,83.86
2019-05-06T05:41:36.486Z,83.55
2019-05-06T05:42:36.464Z,82.79
2019-05-06T05:43:39.369Z,82.89
2019-05-06T05:44:36.453Z,82.89
2019-05-06T05:45:36.402Z,83.72
2019-05-06T05:46:36.390Z,83.10
2019-05-06T05:47:36.403Z,82.75
2019-05-06T05:48:36.368Z,82.14
2019-05-06T05:49:36.357Z,82.03
2019-05-06T05:50:36.376Z,82.03
2019-05-06T05:51:36.335Z,81.82
2019-05-06T05:52:36.348Z,82.14
2019-05-06T05:53:36.316Z,81.10
2019-05-06T05:54:36.302Z,81.21
2019-05-06T05:55:36.289Z,81.62
2019-05-06T05:56:36.278Z,81.21
2019-05-06T05:57:36.287Z,81.21
2019-05-06T05:58:36.258Z,82.03
2019-05-06T05:59:36.244Z,82.34
2019-05-06T06:00:36.245Z,81.21
2019-05-06T06:01:36.335Z,81.31
2019-05-06T06:02:36.246Z,82.03
2019-05-06T06:03:36.206Z,81.93
2019-05-06T06:04:36.204Z,82.34
2019-05-06T06:05:36.186Z,82.65
2019-05-06T06:06:36.173Z,83.99
2019-05-06T06:07:36.175Z,83.78
2019-05-06T06:08:37.027Z,82.75
2019-05-06T06:09:36.133Z,83.17
2019-05-06T06:10:36.210Z,83.68
2019-05-06T06:11:36.110Z,84.09
2019-05-06T06:12:36.119Z,83.68
2019-05-06T06:13:36.093Z,83.99
2019-05-06T06:14:36.075Z,83.48
2019-05-06T06:15:36.065Z,83.68
2019-05-06T06:16:36.077Z,83.27
2019-05-06T06:17:36.064Z,83.48
2019-05-06T06:18:36.032Z,83.44
2019-05-06T06:19:36.018Z,83.64
2019-05-06T06:20:36.025Z,83.64
2019-05-06T06:21:35.996Z,82.78
2019-05-06T06:22:36.013Z,83.71
2019-05-06T06:23:35.988Z,83.61
2019-05-06T06:24:35.965Z,82.57
2019-05-06T06:25:35.951Z,82.26
2019-05-06T06:26:35.944Z,82.06
2019-05-06T06:27:35.948Z,80.99
2019-05-06T06:28:35.921Z,81.09
2019-05-06T06:29:35.907Z,80.99
2019-05-06T06:30:35.894Z,80.68
2019-05-06T06:31:35.884Z,81.57
2019-05-06T06:32:35.891Z,80.85
2019-05-06T06:33:35.864Z,80.54
2019-05-06T06:34:35.852Z,81.05
2019-05-06T06:35:35.841Z,81.47
2019-05-06T06:36:35.828Z,81.16
2019-05-06T06:37:35.842Z,80.75
2019-05-06T06:38:35.808Z,80.09
2019-05-06T06:39:35.816Z,79.06
2019-05-06T06:40:35.784Z,79.03
2019-05-06T06:41:35.773Z,78.61
2019-05-06T06:42:35.780Z,78.61
2019-05-06T06:43:35.812Z,77.69
2019-05-06T06:44:35.737Z,77.17
2019-05-06T06:45:35.729Z,76.31
2019-05-06T06:46:35.714Z,76.62
2019-05-06T06:47:35.735Z,76.01
2019-05-06T06:48:35.693Z,76.38
2019-05-06T06:49:35.681Z,76.28
2019-05-06T06:50:35.671Z,76.59
2019-05-06T06:51:35.658Z,75.56
2019-05-06T06:52:35.667Z,75.67
2019-05-06T06:53:35.634Z,75.46
2019-05-06T06:54:35.650Z,74.19
2019-05-06T06:55:35.633Z,74.50
2019-05-06T06:56:35.603Z,73.88
2019-05-06T06:57:35.614Z,73.78
2019-05-06T06:58:35.580Z,70.90
2019-05-06T06:59:35.591Z,72.34
2019-05-06T07:00:35.556Z,73.16
2019-05-06T07:01:35.555Z,73.27
2019-05-06T07:02:35.568Z,73.36
2019-05-06T07:03:35.526Z,72.10
2019-05-06T07:04:35.516Z,71.28
2019-05-06T07:05:35.503Z,71.41
2019-05-06T07:06:35.489Z,73.23
2019-05-06T07:07:43.557Z,73.33
2019-05-06T07:08:37.679Z,73.44
2019-05-06T07:09:35.458Z,72.68
2019-05-06T07:10:35.444Z,71.38
2019-05-06T07:11:35.447Z,71.08
2019-05-06T07:12:35.439Z,71.79
2019-05-06T07:13:35.435Z,71.89
2019-05-06T07:14:36.237Z,71.25
2019-05-06T07:15:35.389Z,71.38
2019-05-06T07:16:35.407Z,71.48
2019-05-06T07:17:35.368Z,71.08
2019-05-06T07:18:35.377Z,71.79
2019-05-06T07:19:35.346Z,71.25
2019-05-06T07:20:35.334Z,71.55
2019-05-06T07:21:35.820Z,70.73
2019-05-06T07:22:35.319Z,69.91
2019-05-06T07:23:35.319Z,70.12
2019-05-06T07:24:35.289Z,69.98
2019-05-06T07:25:35.278Z,69.06
2019-05-06T07:26:35.269Z,68.82
2019-05-06T07:27:35.335Z,69.23
2019-05-06T07:28:35.264Z,69.54
2019-05-06T07:29:35.234Z,66.97
2019-05-06T07:30:35.221Z,68.00
2019-05-06T07:31:35.211Z,67.56
2019-05-06T07:32:35.198Z,67.97
2019-05-06T07:33:35.211Z,68.59
2019-05-06T07:34:35.372Z,68.27
2019-05-06T07:35:40.484Z,68.27
2019-05-06T07:36:35.161Z,67.63
2019-05-06T07:37:35.143Z,67.11
2019-05-06T07:38:35.151Z,66.60
2019-05-06T07:39:35.128Z,65.99
2019-05-06T07:40:35.110Z,65.14
2019-05-06T07:41:36.372Z,65.58
2019-05-06T07:42:35.088Z,66.50
2019-05-06T07:43:35.140Z,64.94
2019-05-06T07:44:35.074Z,65.65
2019-05-06T07:45:35.055Z,65.75
2019-05-06T07:46:35.045Z,65.34
2019-05-06T07:47:35.033Z,65.01
2019-05-06T07:48:35.044Z,64.50
2019-05-06T07:49:35.010Z,64.39
2019-05-06T07:50:34.999Z,64.70
2019-05-06T07:51:34.988Z,63.37
2019-05-06T07:52:35.012Z,63.37
2019-05-06T07:53:34.990Z,64.39
2019-05-06T07:54:34.973Z,64.70
2019-05-06T07:55:34.951Z,64.98
2019-05-06T07:56:34.938Z,64.57
2019-05-06T07:57:34.921Z,64.47
2019-05-06T07:58:34.932Z,64.33
2019-05-06T07:59:34.908Z,64.54
2019-05-06T08:00:34.891Z,62.59
2019-05-06T08:01:34.880Z,63.31
2019-05-06T08:02:34.865Z,62.70
2019-05-06T08:03:34.877Z,62.90
2019-05-06T08:04:34.848Z,62.46
2019-05-06T08:05:34.832Z,61.26
2019-05-06T08:06:34.827Z,61.54
2019-05-06T08:07:34.810Z,61.24
2019-05-06T08:08:34.921Z,62.16
2019-05-06T08:09:34.794Z,61.95
2019-05-06T08:10:34.829Z,62.43
2019-05-06T08:11:34.826Z,61.82
2019-05-06T08:12:34.756Z,61.10
2019-05-06T08:13:34.764Z,61.75
2019-05-06T08:14:34.733Z,60.93
2019-05-06T08:15:34.725Z,61.41
2019-05-06T08:16:34.713Z,60.52
2019-05-06T08:17:34.699Z,61.13
2019-05-06T08:18:34.708Z,61.95
2019-05-06T08:19:34.676Z,58.89
2019-05-06T08:20:34.664Z,60.44
2019-05-06T08:21:34.653Z,61.16
2019-05-06T08:22:34.642Z,60.75
2019-05-06T08:23:34.670Z,60.75
2019-05-06T08:24:34.619Z,60.24
2019-05-06T08:25:34.610Z,61.47
2019-05-06T08:26:34.600Z,61.26
2019-05-06T08:27:34.587Z,61.98
2019-05-06T08:28:40.620Z,61.26
2019-05-06T08:29:34.586Z,61.16
2019-05-06T08:30:34.593Z,61.98
2019-05-06T08:31:34.547Z,62.49
2019-05-06T08:32:34.533Z,62.49
2019-05-06T08:33:34.519Z,62.29
2019-05-06T08:34:34.530Z,62.29
2019-05-06T08:35:34.500Z,62.49
2019-05-06T08:36:34.485Z,61.77
2019-05-06T08:37:34.474Z,60.75
2019-05-06T08:38:34.475Z,60.37
2019-05-06T08:39:34.474Z,61.70
2019-05-06T08:40:34.444Z,61.50
2019-05-06T08:41:34.432Z,62.11
2019-05-06T08:42:34.418Z,62.21
2019-05-06T08:43:34.470Z,61.60
2019-05-06T08:44:34.418Z,61.40
2019-05-06T08:45:34.388Z,60.99
2019-05-06T08:46:34.375Z,59.66
2019-05-06T08:47:34.364Z,60.71
2019-05-06T08:48:34.352Z,61.19
2019-05-06T08:49:34.360Z,60.81
2019-05-06T08:50:34.329Z,61.01
2019-05-06T08:51:34.318Z,60.17
2019-05-06T08:52:34.306Z,60.27
2019-05-06T08:53:34.298Z,59.48
2019-05-06T08:54:34.305Z,58.33
2019-05-06T08:55:34.274Z,59.66
2019-05-06T08:56:34.266Z,59.38
2019-05-06T08:57:34.260Z,59.96
2019-05-06T08:58:34.240Z,60.27
2019-05-06T08:59:34.249Z,60.06
2019-05-06T09:00:34.219Z,60.88
2019-05-06T09:01:34.214Z,60.58
2019-05-06T09:02:34.211Z,60.27
2019-05-06T09:03:34.186Z,60.17
2019-05-06T09:04:34.194Z,60.58
2019-05-06T09:05:34.173Z,60.27
2019-05-06T09:06:34.508Z,60.68
2019-05-06T09:07:34.140Z,61.40
2019-05-06T09:08:34.130Z,60.96
2019-05-06T09:09:34.141Z,60.27
2019-05-06T09:10:34.107Z,60.47
2019-05-06T09:11:34.095Z,60.88
2019-05-06T09:12:34.087Z,60.65
2019-05-06T09:13:34.080Z,58.70
2019-05-06T09:14:34.080Z,58.20
2019-05-06T09:15:34.049Z,57.89
2019-05-06T09:16:34.040Z,58.27
2019-05-06T09:17:34.029Z,58.68
2019-05-06T09:18:34.027Z,58.07
2019-05-06T09:19:34.027Z,59.39
2019-05-06T09:20:33.995Z,58.78
2019-05-06T09:21:33.989Z,57.93
2019-05-06T09:22:33.974Z,58.27
2019-05-06T09:23:33.961Z,59.09
2019-05-06T09:24:33.969Z,60.52
2019-05-06T09:25:33.938Z,59.60
2019-05-06T09:26:33.928Z,59.39
2019-05-06T09:27:33.915Z,59.70
2019-05-06T09:28:34.088Z,59.47
2019-05-06T09:29:33.917Z,58.58
2019-05-06T09:30:33.885Z,59.06
2019-05-06T09:31:33.874Z,58.78
2019-05-06T09:32:36.016Z,58.58
2019-05-06T09:33:33.848Z,58.68
2019-05-06T09:34:33.858Z,59.09
2019-05-06T09:35:33.830Z,59.19
2019-05-06T09:36:43.783Z,60.11
2019-05-06T09:37:33.810Z,60.83
2019-05-06T09:38:33.795Z,59.60
2019-05-06T09:39:33.815Z,58.68
2019-05-06T09:40:33.771Z,59.19
2019-05-06T09:41:33.769Z,58.78
2019-05-06T09:42:33.753Z,58.48
2019-05-06T09:43:33.737Z,57.56
2019-05-06T09:44:33.765Z,58.37
2019-05-06T09:45:33.743Z,59.50
2019-05-06T09:46:33.703Z,58.98
2019-05-06T09:47:33.696Z,59.70
2019-05-06T09:48:33.681Z,59.60
2019-05-06T09:49:33.670Z,58.98
2019-05-06T09:50:33.683Z,59.60
2019-05-06T09:51:33.651Z,59.80
2019-05-06T09:52:33.637Z,59.47
2019-05-06T09:53:33.625Z,59.95
2019-05-06T09:54:33.619Z,58.22
2019-05-06T09:55:33.625Z,58.60
2019-05-06T09:56:33.629Z,58.47
2019-05-06T09:57:33.580Z,57.32
2019-05-06T09:58:33.572Z,56.40
2019-05-06T09:59:33.558Z,55.26
2019-05-06T10:00:33.566Z,55.13
2019-05-06T10:01:33.536Z,53.88
2019-05-06T10:02:33.529Z,53.04
2019-05-06T10:03:33.516Z,53.85
2019-05-06T10:04:33.502Z,52.83
2019-05-06T10:05:33.510Z,53.02
2019-05-06T10:06:33.513Z,52.28
2019-05-06T10:07:33.882Z,50.67
2019-05-06T10:08:33.457Z,51.28
2019-05-06T10:09:33.446Z,52.50
2019-05-06T10:10:33.454Z,50.59
2019-05-06T10:11:33.425Z,51.51
2019-05-06T10:12:33.413Z,51.33
2019-05-06T10:13:33.407Z,52.35
2019-05-06T10:14:33.391Z,51.43
2019-05-06T10:15:33.405Z,51.03
2019-05-06T10:16:33.369Z,52.78
2019-05-06T10:17:33.358Z,53.70
2019-05-06T10:18:33.347Z,52.96
2019-05-06T10:19:33.336Z,53.24
2019-05-06T10:20:33.344Z,52.83
2019-05-06T10:21:33.315Z,52.81
2019-05-06T10:22:33.310Z,52.22
2019-05-06T10:23:33.297Z,51.69
2019-05-06T10:24:33.281Z,51.59
2019-05-06T10:25:33.288Z,51.46
2019-05-06T10:26:33.256Z,50.95
2019-05-06T10:27:33.246Z,50.73
2019-05-06T10:28:33.883Z,50.42
2019-05-06T10:29:33.222Z,50.12
2019-05-06T10:30:33.329Z,51.23
2019-05-06T10:31:33.205Z,51.51
2019-05-06T10:32:33.196Z,49.79
2019-05-06T10:33:33.179Z,51.11
2019-05-06T10:34:33.178Z,49.79
2019-05-06T10:35:33.177Z,48.77
2019-05-06T10:36:33.170Z,46.68
2019-05-06T10:37:33.626Z,47.52
2019-05-06T10:38:33.122Z,49.45
2019-05-06T10:39:33.113Z,50.80
2019-05-06T10:40:33.258Z,50.90
2019-05-06T10:41:33.088Z,50.90
2019-05-06T10:42:33.079Z,49.48
2019-05-06T10:43:33.066Z,50.39
2019-05-06T10:44:33.083Z,50.49
2019-05-06T10:45:33.064Z,49.90
2019-05-06T10:46:33.034Z,50.11
2019-05-06T10:47:33.170Z,50.42
2019-05-06T10:48:33.011Z,49.93
2019-05-06T10:49:33.674Z,50.84
2019-05-06T10:50:33.017Z,51.68
2019-05-06T10:51:32.977Z,52.20
2019-05-06T10:52:33.331Z,53.03
2019-05-06T10:53:33.082Z,53.55
2019-05-06T10:54:32.944Z,52.93
2019-05-06T10:55:32.952Z,53.34
2019-05-06T10:56:32.926Z,53.44
2019-05-06T10:57:32.934Z,53.67
2019-05-06T10:58:32.898Z,54.46
2019-05-06T10:59:32.887Z,54.08
2019-05-06T11:00:33.276Z,54.49
2019-05-06T11:01:33.151Z,55.00
2019-05-06T11:02:32.855Z,55.30
2019-05-06T11:03:33.160Z,55.61
2019-05-06T11:04:33.251Z,53.70
2019-05-06T11:05:32.824Z,53.59
2019-05-06T11:06:33.646Z,55.13
2019-05-06T11:07:35.190Z,55.33
2019-05-06T11:08:32.791Z,56.35
2019-05-06T11:09:33.334Z,55.84
2019-05-06T11:10:40.899Z,55.94
2019-05-06T11:11:38.487Z,56.15
2019-05-06T11:12:32.758Z,56.12
2019-05-06T11:13:32.732Z,55.23
2019-05-06T11:14:33.110Z,55.41
2019-05-06T11:15:33.090Z,55.51
2019-05-06T11:16:33.259Z,55.41
2019-05-06T11:17:32.794Z,54.79
2019-05-06T11:18:33.576Z,52.83
2019-05-06T11:19:33.157Z,53.03
2019-05-06T11:20:33.448Z,54.57
2019-05-06T11:21:32.928Z,53.92
2019-05-06T11:22:32.914Z,54.74
2019-05-06T11:23:33.763Z,54.51
2019-05-06T11:24:32.791Z,52.78
2019-05-06T11:25:32.597Z,53.50
2019-05-06T11:26:32.641Z,53.39
2019-05-06T11:27:36.756Z,53.59
2019-05-06T11:28:35.355Z,54.08
2019-05-06T11:29:33.898Z,53.98
2019-05-06T11:30:33.156Z,53.57
2019-05-06T11:31:33.266Z,53.98
2019-05-06T11:32:33.076Z,53.06
2019-05-06T11:33:33.022Z,52.86
2019-05-06T11:34:32.706Z,53.98
2019-05-06T11:35:32.877Z,54.69
2019-05-06T11:36:32.521Z,54.69
2019-05-06T11:37:46.342Z,54.49
2019-05-06T11:38:32.459Z,54.28
2019-05-06T11:39:32.440Z,53.98
2019-05-06T11:40:33.218Z,53.88
2019-05-06T11:41:32.442Z,53.50
2019-05-06T11:42:35.656Z,53.19
2019-05-06T11:43:32.583Z,52.60
2019-05-06T11:44:32.423Z,52.60
2019-05-06T11:45:32.376Z,53.44
2019-05-06T11:46:32.381Z,54.77
2019-05-06T11:47:32.701Z,54.87
2019-05-06T11:48:32.775Z,54.16
2019-05-06T11:49:32.733Z,55.30
2019-05-06T11:50:33.495Z,54.79
2019-05-06T11:51:32.930Z,55.61
2019-05-06T11:52:34.427Z,55.02
2019-05-06T11:53:32.671Z,55.63
2019-05-06T11:54:33.729Z,55.33
2019-05-06T11:55:38.084Z,56.15
2019-05-06T11:56:36.793Z,57.29
2019-05-06T11:57:32.614Z,57.40
2019-05-06T11:58:32.228Z,57.50
2019-05-06T11:59:32.217Z,58.52
2019-05-06T12:00:33.298Z,57.81
2019-05-06T12:01:32.950Z,57.60
2019-05-06T12:02:33.017Z,57.84
2019-05-06T12:03:32.701Z,58.96
2019-05-06T12:04:32.881Z,59.27
2019-05-06T12:05:33.005Z,58.65
2019-05-06T12:06:33.107Z,58.14
2019-05-06T12:07:33.203Z,58.73
2019-05-06T12:08:32.642Z,58.86
2019-05-06T12:09:33.033Z,58.86
2019-05-06T12:10:33.109Z,58.83
2019-05-06T12:11:32.125Z,59.37
2019-05-06T12:12:32.081Z,59.55
2019-05-06T12:13:33.746Z,59.95
2019-05-06T12:14:32.051Z,58.32
2019-05-06T12:15:32.039Z,58.42
2019-05-06T12:16:33.223Z,58.42
2019-05-06T12:17:32.018Z,58.52
2019-05-06T12:18:32.146Z,59.23
2019-05-06T12:19:32.546Z,58.73
2019-05-06T12:20:32.910Z,58.83
2019-05-06T12:21:32.950Z,57.50
2019-05-06T12:22:32.120Z,57.70
2019-05-06T12:23:35.451Z,56.89
2019-05-06T12:24:31.940Z,58.01
2019-05-06T12:25:31.934Z,57.98
2019-05-06T12:26:32.333Z,56.68
2019-05-06T12:27:32.697Z,57.29
2019-05-06T12:28:32.685Z,57.57
2019-05-06T12:29:32.428Z,57.17
2019-05-06T12:30:32.387Z,57.07
2019-05-06T12:31:32.850Z,57.57
2019-05-06T12:32:33.076Z,57.48
2019-05-06T12:33:32.933Z,57.37
2019-05-06T12:34:32.399Z,57.88
2019-05-06T12:35:32.217Z,57.88
2019-05-06T12:36:32.582Z,57.96
2019-05-06T12:37:31.793Z,58.29
2019-05-06T12:38:31.812Z,58.06
2019-05-06T12:39:33.021Z,58.57
2019-05-06T12:40:32.108Z,58.87
2019-05-06T12:41:33.542Z,58.06
2019-05-06T12:42:33.175Z,58.37
2019-05-06T12:43:33.085Z,58.37
2019-05-06T12:44:32.282Z,58.26
2019-05-06T12:45:32.936Z,57.86
2019-05-06T12:46:33.241Z,57.86
2019-05-06T12:47:32.851Z,57.75
2019-05-06T12:48:33.181Z,57.86
2019-05-06T12:49:32.559Z,57.86
2019-05-06T12:50:33.191Z,57.93
2019-05-06T12:51:32.308Z,58.54
2019-05-06T12:52:32.283Z,58.14